createdAt,value
2023-04-20T00:00:22.840Z,6.49
2023-04-20T00:01:23.161Z,6.49
2023-04-20T00:02:23.675Z,6.49
2023-04-20T00:03:23.920Z,6.48
2023-04-20T00:04:24.030Z,6.49
2023-04-20T00:05:24.364Z,6.51
2023-04-20T00:06:24.618Z,6.48
2023-04-20T00:07:25.060Z,6.48
2023-04-20T00:08:25.242Z,6.46
2023-04-20T00:09:25.531Z,6.46
2023-04-20T00:10:25.851Z,6.44
2023-04-20T00:11:26.172Z,6.41
2023-04-20T00:12:26.518Z,6.38
2023-04-20T00:13:26.809Z,6.40
2023-04-20T00:14:27.112Z,6.40
2023-04-20T00:15:27.437Z,6.38
2023-04-20T00:16:27.726Z,6.37
2023-04-20T00:17:28.070Z,6.38
2023-04-20T00:18:28.352Z,6.37
2023-04-20T00:19:28.668Z,6.38
2023-04-20T00:20:28.967Z,6.36
2023-04-20T00:21:29.279Z,6.37
2023-04-20T00:22:29.598Z,6.38
2023-04-20T00:23:29.907Z,6.38
2023-04-20T00:24:30.205Z,6.38
2023-04-20T00:25:30.582Z,6.40
2023-04-20T00:26:30.805Z,6.38
2023-04-20T00:27:30.995Z,6.40
2023-04-20T00:28:31.358Z,6.40
2023-04-20T00:29:31.518Z,6.41
2023-04-20T00:30:31.836Z,6.38
2023-04-20T00:31:32.176Z,6.38
2023-04-20T00:32:32.525Z,6.40
2023-04-20T00:33:32.770Z,6.41
2023-04-20T00:34:33.120Z,6.41
2023-04-20T00:35:33.404Z,6.43
2023-04-20T00:36:33.722Z,6.40
2023-04-20T00:37:34.044Z,6.41
2023-04-20T00:38:34.359Z,6.43
2023-04-20T00:39:34.666Z,6.43
2023-04-20T00:40:34.999Z,6.41
2023-04-20T00:41:35.291Z,6.43
2023-04-20T00:42:35.576Z,6.41
2023-04-20T00:43:35.889Z,6.43
2023-04-20T00:44:36.189Z,6.40
2023-04-20T00:45:36.486Z,6.38
2023-04-20T00:46:36.820Z,6.37
2023-04-20T00:47:37.148Z,6.40
2023-04-20T00:48:37.408Z,6.38
2023-04-20T00:49:37.693Z,6.34
2023-04-20T00:50:38.007Z,6.33
2023-04-20T00:51:38.339Z,6.34
2023-04-20T00:52:38.626Z,6.33
2023-04-20T00:53:38.918Z,6.33
2023-04-20T00:54:39.229Z,6.31
2023-04-20T00:55:39.565Z,6.36
2023-04-20T00:56:39.911Z,6.36
2023-04-20T00:57:40.209Z,6.37
2023-04-20T00:58:40.515Z,6.38
2023-04-20T00:59:40.814Z,6.40
2023-04-20T01:00:41.123Z,6.41
2023-04-20T01:01:41.512Z,6.40
2023-04-20T01:02:41.782Z,6.44
2023-04-20T01:03:42.246Z,6.41
2023-04-20T01:04:42.269Z,6.40
2023-04-20T01:05:42.561Z,6.41
2023-04-20T01:06:42.866Z,6.40
2023-04-20T01:07:43.187Z,6.40
2023-04-20T01:08:43.466Z,6.41
2023-04-20T01:09:43.763Z,6.43
2023-04-20T01:10:44.092Z,6.40
2023-04-20T01:11:44.401Z,6.40
2023-04-20T01:12:44.702Z,6.40
2023-04-20T01:13:45.083Z,6.41
2023-04-20T01:14:45.348Z,6.41
2023-04-20T01:15:45.725Z,6.40
2023-04-20T01:16:45.880Z,6.40
2023-04-20T01:17:46.224Z,6.40
2023-04-20T01:18:46.653Z,6.40
2023-04-20T01:19:46.712Z,6.40
2023-04-20T01:20:47.010Z,6.40
2023-04-20T01:21:47.321Z,6.38
2023-04-20T01:22:47.624Z,6.41
2023-04-20T01:23:47.900Z,6.43
2023-04-20T01:24:48.206Z,6.40
2023-04-20T01:25:48.538Z,6.43
2023-04-20T01:26:48.805Z,6.44
2023-04-20T01:27:49.137Z,6.43
2023-04-20T01:28:49.438Z,6.44
2023-04-20T01:29:49.727Z,6.43
2023-04-20T01:30:50.087Z,6.41
2023-04-20T01:31:50.470Z,6.40
2023-04-20T01:32:50.796Z,6.41
2023-04-20T01:33:50.940Z,6.44
2023-04-20T01:34:51.288Z,6.44
2023-04-20T01:35:51.583Z,6.43
2023-04-20T01:36:51.887Z,6.46
2023-04-20T01:37:52.219Z,6.48
2023-04-20T01:38:52.534Z,6.46
2023-04-20T01:39:52.926Z,6.46
2023-04-20T01:40:53.083Z,6.44
2023-04-20T01:41:53.417Z,6.46
2023-04-20T01:42:53.808Z,6.46
2023-04-20T01:43:53.997Z,6.48
2023-04-20T01:44:54.295Z,6.48
2023-04-20T01:45:54.627Z,6.48
2023-04-20T01:46:54.967Z,6.48
2023-04-20T01:47:55.168Z,6.48
2023-04-20T01:48:55.473Z,6.44
2023-04-20T01:49:55.791Z,6.44
2023-04-20T01:50:56.121Z,6.44
2023-04-20T01:51:56.305Z,6.43
2023-04-20T01:52:56.631Z,6.44
2023-04-20T01:53:56.933Z,6.44
2023-04-20T01:54:57.318Z,6.44
2023-04-20T01:55:57.522Z,6.43
2023-04-20T01:56:57.859Z,6.46
2023-04-20T01:57:58.197Z,6.48
2023-04-20T01:58:58.367Z,6.49
2023-04-20T01:59:58.683Z,6.49
2023-04-20T02:00:59.024Z,6.51
2023-04-20T02:01:59.381Z,6.52
2023-04-20T02:02:59.636Z,6.54
2023-04-20T02:04:00.015Z,6.54
2023-04-20T02:05:00.196Z,6.54
2023-04-20T02:06:00.497Z,6.54
2023-04-20T02:07:00.794Z,6.54
2023-04-20T02:08:01.107Z,6.54
2023-04-20T02:09:01.410Z,6.56
2023-04-20T02:10:01.705Z,6.58
2023-04-20T02:11:10.909Z,6.59
2023-04-20T02:12:02.288Z,6.64
2023-04-20T02:13:02.602Z,6.62
2023-04-20T02:14:02.897Z,6.62
2023-04-20T02:15:03.181Z,6.59
2023-04-20T02:16:03.543Z,6.59
2023-04-20T02:17:03.870Z,6.59
2023-04-20T02:18:04.197Z,6.56
2023-04-20T02:19:04.454Z,6.58
2023-04-20T02:20:04.748Z,6.56
2023-04-20T02:21:05.080Z,6.59
2023-04-20T02:22:05.401Z,6.61
2023-04-20T02:23:05.693Z,6.62
2023-04-20T02:24:06.005Z,6.64
2023-04-20T02:25:06.305Z,6.66
2023-04-20T02:26:06.617Z,6.69
2023-04-20T02:27:06.891Z,6.70
2023-04-20T02:28:07.177Z,6.69
2023-04-20T02:29:07.471Z,6.69
2023-04-20T02:30:07.933Z,6.67
2023-04-20T02:31:10.034Z,6.70
2023-04-20T02:32:08.363Z,6.70
2023-04-20T02:33:08.685Z,6.69
2023-04-20T02:34:09.021Z,6.67
2023-04-20T02:35:09.313Z,6.66
2023-04-20T02:36:09.641Z,6.64
2023-04-20T02:37:09.927Z,6.66
2023-04-20T02:38:10.217Z,6.66
2023-04-20T02:39:10.539Z,6.66
2023-04-20T02:40:10.885Z,6.64
2023-04-20T02:41:11.076Z,6.66
2023-04-20T02:42:11.357Z,6.66
2023-04-20T02:43:11.692Z,6.64
2023-04-20T02:44:12.003Z,6.64
2023-04-20T02:45:12.339Z,6.66
2023-04-20T02:46:12.678Z,6.66
2023-04-20T02:47:12.842Z,6.64
2023-04-20T02:48:13.160Z,6.66
2023-04-20T02:49:13.434Z,6.67
2023-04-20T02:50:13.792Z,6.69
2023-04-20T02:51:14.092Z,6.70
2023-04-20T02:52:14.409Z,6.73
2023-04-20T02:53:14.702Z,6.71
2023-04-20T02:54:15.066Z,6.71
2023-04-20T02:55:15.293Z,6.71
2023-04-20T02:56:15.590Z,6.70
2023-04-20T02:57:15.889Z,6.73
2023-04-20T02:58:16.180Z,6.73
2023-04-20T02:59:16.748Z,6.73
2023-04-20T03:00:16.887Z,6.76
2023-04-20T03:01:17.167Z,6.77
2023-04-20T03:02:17.504Z,6.77
2023-04-20T03:03:17.916Z,6.74
2023-04-20T03:04:18.194Z,6.76
2023-04-20T03:05:18.233Z,6.76
2023-04-20T03:06:18.528Z,6.77
2023-04-20T03:07:18.825Z,6.77
2023-04-20T03:08:19.196Z,6.77
2023-04-20T03:09:19.643Z,6.77
2023-04-20T03:10:19.813Z,6.79
2023-04-20T03:11:27.149Z,6.76
2023-04-20T03:12:20.429Z,6.79
2023-04-20T03:13:20.720Z,6.77
2023-04-20T03:14:21.041Z,6.80
2023-04-20T03:15:21.341Z,6.80
2023-04-20T03:16:21.668Z,6.81
2023-04-20T03:17:21.994Z,6.80
2023-04-20T03:18:22.277Z,6.80
2023-04-20T03:19:22.594Z,6.80
2023-04-20T03:20:22.889Z,6.80
2023-04-20T03:21:23.194Z,6.80
2023-04-20T03:22:23.493Z,6.79
2023-04-20T03:23:23.769Z,6.81
2023-04-20T03:24:24.059Z,6.80
2023-04-20T03:25:24.458Z,6.84
2023-04-20T03:26:24.686Z,6.85
2023-04-20T03:27:24.983Z,6.87
2023-04-20T03:28:25.287Z,6.87
2023-04-20T03:29:25.595Z,6.88
2023-04-20T03:30:25.897Z,6.85
2023-04-20T03:31:26.231Z,6.87
2023-04-20T03:32:26.555Z,6.85
2023-04-20T03:33:26.801Z,6.84
2023-04-20T03:34:27.096Z,6.85
2023-04-20T03:35:27.410Z,6.87
2023-04-20T03:36:27.744Z,6.88
2023-04-20T03:37:28.017Z,6.89
2023-04-20T03:38:28.323Z,6.89
2023-04-20T03:39:28.626Z,6.91
2023-04-20T03:40:28.955Z,6.92
2023-04-20T03:41:29.235Z,6.92
2023-04-20T03:42:29.581Z,6.92
2023-04-20T03:43:29.888Z,6.91
2023-04-20T03:44:30.157Z,6.91
2023-04-20T03:45:30.491Z,6.91
2023-04-20T03:46:30.795Z,6.94
2023-04-20T03:47:31.086Z,6.94
2023-04-20T03:48:31.401Z,6.92
2023-04-20T03:49:31.686Z,6.92
2023-04-20T03:50:31.995Z,6.94
2023-04-20T03:51:32.323Z,6.95
2023-04-20T03:52:32.621Z,6.95
2023-04-20T03:53:32.963Z,6.92
2023-04-20T03:54:33.272Z,6.89
2023-04-20T03:55:33.546Z,6.88
2023-04-20T03:56:33.935Z,6.85
2023-04-20T03:57:34.225Z,6.81
2023-04-20T03:58:34.540Z,6.81
2023-04-20T03:59:34.901Z,6.81
2023-04-20T04:00:35.083Z,6.85
2023-04-20T04:01:35.391Z,6.85
2023-04-20T04:02:38.046Z,6.85
2023-04-20T04:03:36.102Z,6.85
2023-04-20T04:04:36.302Z,6.80
2023-04-20T04:05:36.453Z,6.81
2023-04-20T04:06:36.767Z,6.81
2023-04-20T04:07:37.082Z,6.80
2023-04-20T04:08:37.386Z,6.84
2023-04-20T04:09:37.705Z,6.81
2023-04-20T04:10:38.006Z,6.85
2023-04-20T04:11:38.301Z,6.81
2023-04-20T04:12:38.644Z,6.81
2023-04-20T04:13:39.025Z,6.84
2023-04-20T04:14:39.354Z,6.81
2023-04-20T04:15:39.551Z,6.81
2023-04-20T04:16:39.833Z,6.84
2023-04-20T04:17:40.042Z,6.81
2023-04-20T04:18:40.368Z,6.80
2023-04-20T04:19:40.706Z,6.84
2023-04-20T04:20:41.023Z,6.85
2023-04-20T04:21:41.381Z,6.85
2023-04-20T04:22:41.685Z,6.88
2023-04-20T04:23:42.020Z,6.89
2023-04-20T04:24:42.354Z,6.89
2023-04-20T04:25:42.659Z,6.91
2023-04-20T04:26:42.995Z,6.94
2023-04-20T04:27:43.244Z,6.97
2023-04-20T04:28:43.566Z,7.02
2023-04-20T04:29:43.772Z,6.99
2023-04-20T04:30:44.092Z,7.05
2023-04-20T04:31:44.472Z,7.06
2023-04-20T04:32:44.804Z,7.07
2023-04-20T04:33:45.052Z,7.07
2023-04-20T04:34:45.356Z,7.07
2023-04-20T04:35:45.681Z,7.05
2023-04-20T04:36:45.971Z,7.05
2023-04-20T04:37:46.268Z,7.05
2023-04-20T04:38:46.511Z,7.03
2023-04-20T04:39:46.877Z,7.03
2023-04-20T04:40:47.089Z,7.03
2023-04-20T04:41:47.314Z,7.03
2023-04-20T04:42:47.569Z,7.03
2023-04-20T04:43:47.779Z,7.02
2023-04-20T04:44:48.114Z,6.99
2023-04-20T04:45:48.447Z,6.99
2023-04-20T04:46:48.833Z,6.99
2023-04-20T04:47:49.043Z,6.97
2023-04-20T04:48:49.349Z,6.98
2023-04-20T04:49:49.654Z,6.97
2023-04-20T04:50:49.912Z,6.97
2023-04-20T04:51:50.223Z,6.99
2023-04-20T04:52:50.492Z,6.98
2023-04-20T04:53:50.714Z,6.99
2023-04-20T04:54:51.061Z,7.03
2023-04-20T04:55:51.252Z,7.05
2023-04-20T04:56:51.569Z,7.06
2023-04-20T04:57:51.931Z,7.06
2023-04-20T04:58:52.238Z,7.06
2023-04-20T04:59:52.565Z,7.07
2023-04-20T05:00:52.882Z,7.09
2023-04-20T05:01:53.228Z,7.10
2023-04-20T05:02:53.700Z,7.15
2023-04-20T05:03:53.833Z,7.15
2023-04-20T05:04:54.089Z,7.20
2023-04-20T05:05:54.320Z,7.24
2023-04-20T05:06:54.548Z,7.24
2023-04-20T05:07:54.795Z,7.24
2023-04-20T05:08:55.117Z,7.28
2023-04-20T05:09:55.396Z,7.30
2023-04-20T05:10:55.624Z,7.34
2023-04-20T05:11:55.873Z,7.35
2023-04-20T05:12:56.228Z,7.32
2023-04-20T05:13:56.464Z,7.32
2023-04-20T05:14:56.797Z,7.32
2023-04-20T05:15:57.010Z,7.30
2023-04-20T05:16:57.250Z,7.30
2023-04-20T05:17:57.512Z,7.31
2023-04-20T05:18:57.821Z,7.30
2023-04-20T05:19:58.147Z,7.31
2023-04-20T05:20:58.577Z,7.32
2023-04-20T05:21:58.762Z,7.34
2023-04-20T05:22:59.094Z,7.35
2023-04-20T05:23:59.341Z,7.37
2023-04-20T05:24:59.567Z,7.37
2023-04-20T05:25:59.928Z,7.35
2023-04-20T05:27:00.191Z,7.35
2023-04-20T05:28:00.563Z,7.37
2023-04-20T05:29:00.766Z,7.35
2023-04-20T05:30:13.171Z,7.31
2023-04-20T05:31:02.328Z,7.31
2023-04-20T05:32:01.810Z,7.30
2023-04-20T05:33:01.967Z,7.28
2023-04-20T05:34:02.192Z,7.27
2023-04-20T05:35:02.392Z,7.28
2023-04-20T05:36:02.650Z,7.30
2023-04-20T05:37:02.939Z,7.30
2023-04-20T05:38:03.229Z,7.31
2023-04-20T05:39:03.436Z,7.34
2023-04-20T05:40:03.629Z,7.34
2023-04-20T05:41:03.952Z,7.32
2023-04-20T05:42:04.315Z,7.32
2023-04-20T05:43:04.493Z,7.34
2023-04-20T05:44:04.726Z,7.35
2023-04-20T05:45:05.017Z,7.32
2023-04-20T05:46:05.280Z,7.34
2023-04-20T05:47:05.593Z,7.32
2023-04-20T05:48:05.885Z,7.34
2023-04-20T05:49:06.087Z,7.35
2023-04-20T05:50:06.430Z,7.37
2023-04-20T05:51:06.678Z,7.37
2023-04-20T05:52:07.016Z,7.39
2023-04-20T05:53:07.286Z,7.40
2023-04-20T05:54:07.488Z,7.43
2023-04-20T05:55:07.827Z,7.42
2023-04-20T05:56:08.151Z,7.43
2023-04-20T05:57:08.480Z,7.43
2023-04-20T05:58:08.754Z,7.42
2023-04-20T05:59:08.977Z,7.40
2023-04-20T06:00:09.322Z,7.42
2023-04-20T06:01:09.538Z,7.42
2023-04-20T06:02:09.964Z,7.42
2023-04-20T06:03:10.614Z,7.42
2023-04-20T06:04:10.692Z,7.43
2023-04-20T06:05:11.247Z,7.43
2023-04-20T06:06:11.100Z,7.45
2023-04-20T06:07:11.346Z,7.48
2023-04-20T06:08:11.616Z,7.48
2023-04-20T06:09:11.831Z,7.48
2023-04-20T06:10:12.243Z,7.49
2023-04-20T06:11:12.494Z,7.50
2023-04-20T06:12:12.703Z,7.52
2023-04-20T06:13:12.980Z,7.53
2023-04-20T06:14:13.193Z,7.55
2023-04-20T06:15:13.450Z,7.57
2023-04-20T06:16:13.797Z,7.60
2023-04-20T06:17:13.891Z,7.63
2023-04-20T06:18:14.351Z,7.64
2023-04-20T06:19:14.496Z,7.68
2023-04-20T06:20:14.716Z,7.71
2023-04-20T06:21:14.920Z,7.74
2023-04-20T06:22:15.190Z,7.75
2023-04-20T06:23:15.610Z,7.77
2023-04-20T06:24:15.852Z,7.77
2023-04-20T06:25:16.159Z,7.79
2023-04-20T06:26:16.414Z,7.77
2023-04-20T06:27:16.638Z,7.79
2023-04-20T06:28:16.899Z,7.80
2023-04-20T06:29:17.311Z,7.82
2023-04-20T06:30:17.345Z,7.83
2023-04-20T06:31:17.738Z,7.83
2023-04-20T06:32:18.905Z,7.86
2023-04-20T06:33:18.227Z,7.86
2023-04-20T06:34:18.457Z,7.89
2023-04-20T06:35:18.794Z,7.89
2023-04-20T06:36:19.012Z,7.93
2023-04-20T06:37:19.293Z,7.93
2023-04-20T06:38:19.522Z,7.95
2023-04-20T06:39:20.000Z,7.98
2023-04-20T06:40:20.068Z,7.98
2023-04-20T06:41:20.285Z,8.01
2023-04-20T06:42:20.667Z,8.02
2023-04-20T06:43:20.887Z,8.02
2023-04-20T06:44:21.119Z,8.01
2023-04-20T06:45:21.347Z,8.01
2023-04-20T06:46:21.642Z,8.04
2023-04-20T06:47:21.876Z,8.05
2023-04-20T06:48:30.758Z,8.10
2023-04-20T06:49:23.339Z,8.11
2023-04-20T06:50:22.652Z,8.12
2023-04-20T06:51:22.925Z,8.18
2023-04-20T06:52:23.252Z,8.22
2023-04-20T06:53:23.533Z,8.22
2023-04-20T06:54:23.855Z,8.25
2023-04-20T06:55:24.150Z,8.25
2023-04-20T06:56:24.443Z,8.22
2023-04-20T06:57:24.754Z,8.20
2023-04-20T06:58:25.048Z,8.20
2023-04-20T06:59:25.387Z,8.23
2023-04-20T07:00:25.628Z,8.22
2023-04-20T07:01:25.976Z,8.22
2023-04-20T07:02:26.352Z,8.25
2023-04-20T07:03:26.627Z,8.26
2023-04-20T07:04:26.814Z,8.28
2023-04-20T07:05:27.100Z,8.25
2023-04-20T07:06:27.429Z,8.23
2023-04-20T07:07:27.750Z,8.25
2023-04-20T07:08:28.074Z,8.22
2023-04-20T07:09:28.330Z,8.20
2023-04-20T07:10:28.645Z,8.20
2023-04-20T07:11:28.974Z,8.22
2023-04-20T07:12:29.272Z,8.23
2023-04-20T07:13:33.246Z,8.25
2023-04-20T07:14:29.824Z,8.30
2023-04-20T07:15:30.330Z,8.30
2023-04-20T07:16:30.480Z,8.33
2023-04-20T07:17:30.808Z,8.34
2023-04-20T07:18:32.363Z,8.37
2023-04-20T07:19:31.313Z,8.40
2023-04-20T07:20:31.643Z,8.44
2023-04-20T07:21:31.994Z,8.45
2023-04-20T07:22:32.304Z,8.48
2023-04-20T07:23:32.531Z,8.52
2023-04-20T07:24:32.866Z,8.52
2023-04-20T07:25:33.194Z,8.53
2023-04-20T07:26:33.563Z,8.58
2023-04-20T07:27:33.889Z,8.59
2023-04-20T07:28:34.242Z,8.62
2023-04-20T07:29:34.567Z,8.63
2023-04-20T07:30:34.894Z,8.68
2023-04-20T07:31:35.549Z,8.68
2023-04-20T07:32:35.468Z,8.71
2023-04-20T07:33:35.694Z,8.71
2023-04-20T07:34:35.932Z,8.76
2023-04-20T07:35:37.211Z,8.79
2023-04-20T07:36:36.514Z,8.84
2023-04-20T07:37:36.827Z,8.95
2023-04-20T07:38:37.082Z,9.01
2023-04-20T07:39:37.356Z,9.05
2023-04-20T07:40:37.567Z,9.15
2023-04-20T07:41:37.793Z,9.23
2023-04-20T07:42:38.034Z,9.31
2023-04-20T07:43:38.447Z,9.42
2023-04-20T07:44:38.554Z,9.47
2023-04-20T07:45:38.856Z,9.54
2023-04-20T07:46:39.138Z,9.58
2023-04-20T07:47:39.470Z,9.68
2023-04-20T07:48:39.700Z,9.72
2023-04-20T07:49:40.026Z,9.74
2023-04-20T07:50:40.242Z,9.76
2023-04-20T07:51:40.568Z,9.79
2023-04-20T07:52:40.828Z,9.84
2023-04-20T07:53:41.104Z,9.84
2023-04-20T07:54:41.393Z,9.90
2023-04-20T07:55:41.679Z,9.96
2023-04-20T07:56:41.995Z,9.97
2023-04-20T07:57:42.265Z,10.01
2023-04-20T07:58:42.567Z,10.05
2023-04-20T07:59:42.810Z,10.04
2023-04-20T08:00:43.066Z,9.99
2023-04-20T08:01:43.366Z,9.94
2023-04-20T08:02:43.760Z,9.91
2023-04-20T08:03:44.148Z,9.91
2023-04-20T08:04:44.401Z,9.90
2023-04-20T08:05:44.428Z,9.87
2023-04-20T08:06:44.707Z,9.86
2023-04-20T08:07:45.030Z,9.83
2023-04-20T08:08:45.280Z,9.86
2023-04-20T08:09:45.527Z,9.87
2023-04-20T08:10:45.768Z,9.83
2023-04-20T08:11:53.521Z,9.87
2023-04-20T08:12:46.240Z,9.96
2023-04-20T08:13:46.502Z,10.01
2023-04-20T08:14:46.745Z,10.02
2023-04-20T08:15:47.014Z,10.04
2023-04-20T08:16:47.273Z,10.09
2023-04-20T08:17:47.636Z,10.20
2023-04-20T08:18:47.847Z,10.27
2023-04-20T08:19:48.872Z,10.30
2023-04-20T08:20:48.477Z,10.30
2023-04-20T08:21:48.749Z,10.36
2023-04-20T08:22:49.005Z,10.38
2023-04-20T08:23:49.245Z,10.34
2023-04-20T08:24:49.515Z,10.34
2023-04-20T08:25:49.772Z,10.33
2023-04-20T08:26:50.060Z,10.34
2023-04-20T08:27:50.316Z,10.29
2023-04-20T08:28:50.595Z,10.30
2023-04-20T08:29:51.086Z,10.33
2023-04-20T08:30:51.145Z,10.36
2023-04-20T08:31:51.909Z,10.33
2023-04-20T08:32:51.748Z,10.32
2023-04-20T08:33:51.956Z,10.32
2023-04-20T08:34:52.213Z,10.30
2023-04-20T08:35:52.517Z,10.32
2023-04-20T08:36:52.781Z,10.33
2023-04-20T08:37:53.040Z,10.36
2023-04-20T08:38:53.307Z,10.38
2023-04-20T08:39:53.570Z,10.41
2023-04-20T08:40:53.845Z,10.44
2023-04-20T08:41:54.142Z,10.52
2023-04-20T08:42:54.413Z,10.60
2023-04-20T08:43:54.695Z,10.66
2023-04-20T08:44:54.991Z,10.68
2023-04-20T08:45:55.294Z,10.73
2023-04-20T08:46:55.732Z,10.76
2023-04-20T08:47:55.880Z,10.79
2023-04-20T08:48:56.135Z,10.88
2023-04-20T08:49:56.426Z,10.94
2023-04-20T08:50:56.669Z,10.94
2023-04-20T08:51:56.982Z,10.94
2023-04-20T08:52:57.355Z,10.94
2023-04-20T08:53:57.798Z,10.92
2023-04-20T08:54:58.162Z,10.91
2023-04-20T09:30:44.176Z,11.79
2023-04-20T09:31:41.994Z,11.83
2023-04-20T09:32:42.208Z,11.83
2023-04-20T09:33:42.552Z,11.85
2023-04-20T09:34:42.811Z,11.90
2023-04-20T09:35:43.165Z,11.88
2023-04-20T09:36:43.472Z,11.90
2023-04-20T09:37:43.845Z,11.94
2023-04-20T09:38:44.033Z,11.98
2023-04-20T09:39:44.321Z,12.09
2023-04-20T09:40:44.610Z,12.10
2023-04-20T09:41:44.923Z,12.14
2023-04-20T09:42:45.316Z,12.13
2023-04-20T09:43:45.521Z,12.16
2023-04-20T09:44:45.790Z,12.17
2023-04-20T09:45:46.113Z,12.20
2023-04-20T09:46:46.382Z,12.19
2023-04-20T09:47:46.743Z,12.17
2023-04-20T09:48:46.952Z,12.16
2023-04-20T09:49:47.290Z,12.14
2023-04-20T09:50:49.931Z,12.16
2023-04-20T09:51:47.867Z,12.14
2023-04-20T09:52:48.148Z,12.14
2023-04-20T09:53:48.795Z,12.17
2023-04-20T09:54:48.711Z,12.20
2023-04-20T09:55:48.983Z,12.21
2023-04-20T09:56:49.296Z,12.29
2023-04-20T09:57:49.594Z,12.39
2023-04-20T09:58:49.912Z,12.49
2023-04-20T09:59:51.913Z,12.59
2023-04-20T10:00:50.515Z,12.64
2023-04-20T10:01:50.933Z,12.71
2023-04-20T10:02:51.175Z,12.77
2023-04-20T10:03:51.491Z,12.79
2023-04-20T10:04:51.589Z,12.83
2023-04-20T10:05:53.524Z,12.83
2023-04-20T10:06:52.184Z,12.79
2023-04-20T10:07:52.446Z,12.82
2023-04-20T10:08:52.730Z,12.82
2023-04-20T10:09:52.983Z,12.79
2023-04-20T10:10:53.261Z,12.72
2023-04-20T10:11:55.106Z,12.65
2023-04-20T10:12:53.786Z,12.59
2023-04-20T10:13:54.074Z,12.50
2023-04-20T10:14:54.350Z,12.47
2023-04-20T10:15:54.679Z,12.46
2023-04-20T10:16:55.001Z,12.38
2023-04-20T10:17:55.372Z,12.35
2023-04-20T10:18:55.681Z,12.32
2023-04-20T10:19:55.798Z,12.35
2023-04-20T10:20:56.077Z,12.38
2023-04-20T10:21:56.372Z,12.39
2023-04-20T10:22:56.741Z,12.39
2023-04-20T10:23:57.001Z,12.42
2023-04-20T10:24:57.286Z,12.54
2023-04-20T10:25:57.630Z,12.57
2023-04-20T10:26:57.952Z,12.64
2023-04-20T10:27:58.230Z,12.64
2023-04-20T10:28:58.522Z,12.62
2023-04-20T10:29:58.836Z,12.59
2023-04-20T10:30:59.094Z,12.54
2023-04-20T10:31:59.356Z,12.49
2023-04-20T10:32:59.682Z,12.46
2023-04-20T10:33:59.944Z,12.42
2023-04-20T10:35:00.272Z,12.37
2023-04-20T10:36:00.447Z,12.32
2023-04-20T10:37:00.736Z,12.32
2023-04-20T10:38:01.006Z,12.32
2023-04-20T10:39:01.311Z,12.38
2023-04-20T10:40:01.637Z,12.41
2023-04-20T10:41:01.926Z,12.46
2023-04-20T10:42:02.206Z,12.47
2023-04-20T10:43:02.472Z,12.47
2023-04-20T10:44:02.761Z,12.46
2023-04-20T10:45:03.790Z,12.49
2023-04-20T10:46:03.307Z,12.52
2023-04-20T10:47:03.583Z,12.56
2023-04-20T10:48:03.897Z,12.62
2023-04-20T10:49:04.158Z,12.70
2023-04-20T10:50:04.434Z,12.75
2023-04-20T10:51:04.729Z,12.82
2023-04-20T10:52:05.022Z,12.89
2023-04-20T10:53:05.324Z,12.93
2023-04-20T10:54:05.634Z,12.96
2023-04-20T10:55:05.926Z,12.97
2023-04-20T10:56:06.227Z,13.01
2023-04-20T10:57:06.585Z,13.05
2023-04-20T10:58:06.732Z,13.08
2023-04-20T10:59:07.053Z,13.11
2023-04-20T11:00:07.281Z,13.17
2023-04-20T11:01:07.562Z,13.11
2023-04-20T11:02:07.940Z,13.08
2023-04-20T11:03:08.151Z,13.10
2023-04-20T11:04:08.444Z,13.12
2023-04-20T11:05:08.790Z,13.14
2023-04-20T11:06:09.107Z,13.11
2023-04-20T11:07:09.399Z,13.17
2023-04-20T11:08:09.658Z,13.20
2023-04-20T11:09:09.926Z,13.23
2023-04-20T11:10:10.164Z,13.28
2023-04-20T11:11:11.319Z,13.32
2023-04-20T11:12:10.724Z,13.36
2023-04-20T11:13:11.009Z,13.41
2023-04-20T11:14:11.294Z,13.45
2023-04-20T11:15:11.596Z,13.48
2023-04-20T11:16:11.891Z,13.49
2023-04-20T11:17:12.172Z,13.51
2023-04-20T11:18:12.450Z,13.52
2023-04-20T11:19:12.669Z,13.51
2023-04-20T11:20:13.067Z,13.54
2023-04-20T11:21:13.205Z,13.59
2023-04-20T11:22:13.487Z,13.64
2023-04-20T11:23:13.750Z,13.67
2023-04-20T11:24:13.988Z,13.73
2023-04-20T11:25:14.214Z,13.73
2023-04-20T11:26:14.442Z,13.70
2023-04-20T11:27:14.756Z,13.75
2023-04-20T11:28:14.996Z,13.77
2023-04-20T11:29:15.415Z,13.77
2023-04-20T11:30:15.639Z,13.77
2023-04-20T11:31:15.872Z,13.75
2023-04-20T11:32:16.217Z,13.73
2023-04-20T11:33:16.486Z,13.84
2023-04-20T11:34:16.579Z,13.92
2023-04-20T11:35:16.835Z,14.02
2023-04-20T11:36:17.105Z,14.04
2023-04-20T11:37:17.431Z,14.07
2023-04-20T11:38:17.682Z,14.15
2023-04-20T11:39:18.060Z,14.25
2023-04-20T11:40:18.235Z,14.33
2023-04-20T11:41:18.499Z,14.36
2023-04-20T11:42:18.752Z,14.40
2023-04-20T11:43:18.991Z,14.50
2023-04-20T11:44:19.246Z,14.62
2023-04-20T11:45:19.479Z,14.64
2023-04-20T11:46:19.757Z,14.62
2023-04-20T11:47:20.109Z,14.61
2023-04-20T11:48:20.348Z,14.62
2023-04-20T11:49:20.601Z,14.58
2023-04-20T11:50:20.846Z,14.52
2023-04-20T11:51:21.124Z,14.51
2023-04-20T11:52:21.447Z,14.52
2023-04-20T11:53:21.686Z,14.57
2023-04-20T11:54:21.967Z,14.60
2023-04-20T11:55:22.188Z,14.69
2023-04-20T11:56:22.465Z,14.70
2023-04-20T11:57:22.719Z,14.62
2023-04-20T11:58:22.974Z,14.60
2023-04-20T11:59:23.225Z,14.60
2023-04-20T12:00:23.481Z,14.64
2023-04-20T12:01:23.739Z,14.69
2023-04-20T12:02:24.191Z,14.70
2023-04-20T12:03:24.517Z,14.69
2023-04-20T12:04:24.856Z,14.72
2023-04-20T12:05:24.865Z,14.77
2023-04-20T12:06:25.109Z,14.83
2023-04-20T12:07:25.415Z,14.88
2023-04-20T12:08:25.666Z,14.88
2023-04-20T12:09:25.916Z,14.86
2023-04-20T12:10:26.247Z,14.80
2023-04-20T12:11:26.844Z,14.73
2023-04-20T12:12:26.837Z,14.70
2023-04-20T12:13:27.018Z,14.65
2023-04-20T12:14:27.392Z,14.69
2023-04-20T12:15:27.629Z,14.70
2023-04-20T12:16:27.961Z,14.78
2023-04-20T12:17:28.277Z,14.86
2023-04-20T12:18:28.505Z,14.92
2023-04-20T12:19:28.716Z,14.92
2023-04-20T12:20:29.087Z,14.94
2023-04-20T12:21:29.374Z,14.96
2023-04-20T12:22:29.632Z,15.01
2023-04-20T12:23:29.924Z,15.02
2023-04-20T12:24:30.183Z,15.07
2023-04-20T12:25:30.420Z,15.10
2023-04-20T12:26:37.992Z,15.14
2023-04-20T12:27:32.031Z,15.19
2023-04-20T12:28:31.244Z,15.23
2023-04-20T12:29:31.521Z,15.23
2023-04-20T12:30:31.757Z,15.21
2023-04-20T12:31:32.086Z,15.21
2023-04-20T12:32:32.376Z,15.17
2023-04-20T12:33:32.615Z,15.11
2023-04-20T12:34:32.976Z,15.11
2023-04-20T12:35:33.196Z,15.14
2023-04-20T12:36:33.436Z,15.19
2023-04-20T12:37:33.762Z,15.17
2023-04-20T12:38:33.973Z,15.17
2023-04-20T12:39:34.331Z,15.14
2023-04-20T12:40:34.677Z,15.13
2023-04-20T12:41:34.897Z,15.14
2023-04-20T12:42:35.202Z,15.14
2023-04-20T12:43:35.437Z,15.19
2023-04-20T12:44:35.665Z,15.23
2023-04-20T12:45:35.917Z,15.28
2023-04-20T12:46:36.249Z,15.32
2023-04-20T12:47:36.502Z,15.34
2023-04-20T12:48:36.706Z,15.39
2023-04-20T12:49:36.929Z,15.46
2023-04-20T12:50:37.208Z,15.53
2023-04-20T12:51:37.460Z,15.57
2023-04-20T12:52:37.723Z,15.60
2023-04-20T12:53:37.971Z,15.59
2023-04-20T12:54:38.241Z,15.62
2023-04-20T12:55:38.476Z,15.62
2023-04-20T12:56:38.757Z,15.62
2023-04-20T12:57:39.019Z,15.59
2023-04-20T12:58:39.281Z,15.57
2023-04-20T12:59:39.535Z,15.56
2023-04-20T13:00:39.785Z,15.51
2023-04-20T13:01:40.019Z,15.56
2023-04-20T13:02:40.353Z,15.56
2023-04-20T13:03:40.792Z,15.56
2023-04-20T13:04:40.847Z,15.56
2023-04-20T13:05:41.073Z,15.56
2023-04-20T13:06:41.310Z,15.56
2023-04-20T13:07:41.551Z,15.56
2023-04-20T13:08:41.817Z,15.60
2023-04-20T13:09:42.055Z,15.65
2023-04-20T13:10:42.281Z,15.72
2023-04-20T13:11:42.558Z,15.74
2023-04-20T13:12:42.794Z,15.82
2023-04-20T13:13:43.042Z,15.87
2023-04-20T13:14:43.303Z,15.89
2023-04-20T13:15:43.544Z,15.86
2023-04-20T13:16:43.859Z,15.89
2023-04-20T13:17:44.089Z,15.86
2023-04-20T13:18:44.307Z,15.84
2023-04-20T13:19:44.544Z,15.86
2023-04-20T13:20:44.781Z,15.84
2023-04-20T13:21:45.056Z,15.87
2023-04-20T13:22:56.825Z,15.84
2023-04-20T13:23:46.627Z,15.83
2023-04-20T13:24:45.924Z,15.78
2023-04-20T13:25:46.234Z,15.76
2023-04-20T13:26:46.437Z,15.74
2023-04-20T13:27:46.669Z,15.69
2023-04-20T13:28:46.900Z,15.68
2023-04-20T13:29:47.135Z,15.68
2023-04-20T13:30:47.385Z,15.72
2023-04-20T13:31:47.723Z,15.75
2023-04-20T13:32:47.959Z,15.78
2023-04-20T13:33:48.181Z,15.76
2023-04-20T13:34:48.435Z,15.78
2023-04-20T13:35:50.210Z,15.82
2023-04-20T13:36:49.015Z,15.87
2023-04-20T13:37:49.257Z,15.93
2023-04-20T13:38:51.764Z,15.96
2023-04-20T13:39:49.819Z,15.97
2023-04-20T13:40:50.074Z,15.96
2023-04-20T13:41:50.353Z,15.96
2023-04-20T13:42:50.610Z,15.94
2023-04-20T13:43:50.892Z,15.93
2023-04-20T13:44:51.118Z,15.94
2023-04-20T13:45:51.400Z,15.97
2023-04-20T13:46:51.624Z,16.04